sensor_id;sensor_type;location;lat;lon;timestamp;P1;durP1;ratioP1;P2;durP2;ratioP2
77046;SDS011;65977;56.380;44.022;2022-12-24T00:02:11;11.93;;;8.50;;
77046;SDS011;65977;56.380;44.022;2022-12-24T00:04:37;13.38;;;8.93;;
77046;SDS011;65977;56.380;44.022;2022-12-24T00:07:02;10.75;;;7.07;;
77046;SDS011;65977;56.380;44.022;2022-12-24T00:09:28;12.30;;;6.70;;
77046;SDS011;65977;56.380;44.022;2022-12-24T00:11:54;10.48;;;6.10;;
77046;SDS011;65977;56.380;44.022;2022-12-24T00:14:19;14.10;;;10.60;;
77046;SDS011;65977;56.380;44.022;2022-12-24T00:16:45;12.98;;;8.18;;
77046;SDS011;65977;56.380;44.022;2022-12-24T00:19:11;12.05;;;7.35;;
77046;SDS011;65977;56.380;44.022;2022-12-24T00:21:37;12.80;;;9.25;;
77046;SDS011;65977;56.380;44.022;2022-12-24T00:24:03;12.68;;;7.43;;
77046;SDS011;65977;56.380;44.022;2022-12-24T00:26:30;13.25;;;8.68;;
77046;SDS011;65977;56.380;44.022;2022-12-24T00:28:57;10.55;;;6.35;;
77046;SDS011;65977;56.380;44.022;2022-12-24T00:31:22;11.70;;;8.18;;
77046;SDS011;65977;56.380;44.022;2022-12-24T00:33:48;13.00;;;9.35;;
77046;SDS011;65977;56.380;44.022;2022-12-24T00:36:14;14.55;;;10.35;;
77046;SDS011;65977;56.380;44.022;2022-12-24T00:38:40;15.15;;;9.52;;
77046;SDS011;65977;56.380;44.022;2022-12-24T00:41:07;19.20;;;12.60;;
77046;SDS011;65977;56.380;44.022;2022-12-24T00:43:54;14.27;;;8.63;;
77046;SDS011;65977;56.380;44.022;2022-12-24T00:46:22;10.70;;;6.00;;
77046;SDS011;65977;56.380;44.022;2022-12-24T00:48:49;14.07;;;8.25;;
77046;SDS011;65977;56.380;44.022;2022-12-24T00:51:15;18.42;;;11.82;;
77046;SDS011;65977;56.380;44.022;2022-12-24T00:53:41;7.85;;;5.72;;
77046;SDS011;65977;56.380;44.022;2022-12-24T00:56:07;15.43;;;8.98;;
77046;SDS011;65977;56.380;44.022;2022-12-24T00:58:33;13.90;;;9.23;;
77046;SDS011;65977;56.380;44.022;2022-12-24T01:00:59;16.63;;;10.18;;
77046;SDS011;65977;56.380;44.022;2022-12-24T01:03:25;16.50;;;10.60;;
77046;SDS011;65977;56.380;44.022;2022-12-24T01:06:06;15.85;;;10.48;;
77046;SDS011;65977;56.380;44.022;2022-12-24T01:08:45;12.98;;;9.13;;
77046;SDS011;65977;56.380;44.022;2022-12-24T01:11:14;14.15;;;8.40;;
77046;SDS011;65977;56.380;44.022;2022-12-24T01:13:40;17.73;;;10.40;;
77046;SDS011;65977;56.380;44.022;2022-12-24T01:16:13;13.57;;;8.68;;
77046;SDS011;65977;56.380;44.022;2022-12-24T01:18:41;11.73;;;8.00;;
77046;SDS011;65977;56.380;44.022;2022-12-24T01:21:06;12.13;;;7.70;;
77046;SDS011;65977;56.380;44.022;2022-12-24T01:23:32;16.10;;;10.13;;
77046;SDS011;65977;56.380;44.022;2022-12-24T01:26:02;14.52;;;9.07;;
77046;SDS011;65977;56.380;44.022;2022-12-24T01:28:28;10.10;;;7.43;;
77046;SDS011;65977;56.380;44.022;2022-12-24T01:30:54;11.00;;;7.40;;
77046;SDS011;65977;56.380;44.022;2022-12-24T01:33:20;14.75;;;9.23;;
77046;SDS011;65977;56.380;44.022;2022-12-24T01:35:45;15.00;;;9.93;;
77046;SDS011;65977;56.380;44.022;2022-12-24T01:38:11;15.88;;;10.80;;
77046;SDS011;65977;56.380;44.022;2022-12-24T01:40:40;17.33;;;11.70;;
77046;SDS011;65977;56.380;44.022;2022-12-24T01:43:26;12.32;;;8.35;;
77046;SDS011;65977;56.380;44.022;2022-12-24T01:53:53;15.77;;;9.88;;
77046;SDS011;65977;56.380;44.022;2022-12-24T01:56:23;18.00;;;11.13;;
77046;SDS011;65977;56.380;44.022;2022-12-24T01:58:52;15.77;;;10.88;;
77046;SDS011;65977;56.380;44.022;2022-12-24T02:01:21;19.52;;;11.50;;
77046;SDS011;65977;56.380;44.022;2022-12-24T02:03:48;18.35;;;9.90;;
77046;SDS011;65977;56.380;44.022;2022-12-24T02:06:14;17.17;;;9.88;;
77046;SDS011;65977;56.380;44.022;2022-12-24T02:08:42;15.68;;;9.23;;
77046;SDS011;65977;56.380;44.022;2022-12-24T02:11:09;17.50;;;11.35;;
77046;SDS011;65977;56.380;44.022;2022-12-24T02:13:37;18.05;;;10.13;;
77046;SDS011;65977;56.380;44.022;2022-12-24T02:16:07;19.80;;;11.30;;
77046;SDS011;65977;56.380;44.022;2022-12-24T02:28:25;20.45;;;11.93;;
77046;SDS011;65977;56.380;44.022;2022-12-24T02:30:58;16.02;;;10.32;;
77046;SDS011;65977;56.380;44.022;2022-12-24T02:33:31;15.63;;;9.27;;
77046;SDS011;65977;56.380;44.022;2022-12-24T02:38:31;16.90;;;9.80;;
77046;SDS011;65977;56.380;44.022;2022-12-24T02:41:10;20.58;;;11.95;;
77046;SDS011;65977;56.380;44.022;2022-12-24T02:43:50;18.92;;;11.40;;
77046;SDS011;65977;56.380;44.022;2022-12-24T02:46:20;23.35;;;13.00;;
77046;SDS011;65977;56.380;44.022;2022-12-24T02:48:50;18.42;;;9.73;;
77046;SDS011;65977;56.380;44.022;2022-12-24T02:51:20;18.67;;;10.93;;
77046;SDS011;65977;56.380;44.022;2022-12-24T02:53:48;14.65;;;8.55;;
77046;SDS011;65977;56.380;44.022;2022-12-24T03:07:40;16.33;;;9.57;;
77046;SDS011;65977;56.380;44.022;2022-12-24T03:12:56;18.63;;;11.10;;
77046;SDS011;65977;56.380;44.022;2022-12-24T03:17:55;19.55;;;11.32;;
77046;SDS011;65977;56.380;44.022;2022-12-24T03:20:26;20.45;;;11.30;;
77046;SDS011;65977;56.380;44.022;2022-12-24T03:22:59;18.67;;;11.20;;
77046;SDS011;65977;56.380;44.022;2022-12-24T03:25:25;21.15;;;12.82;;
77046;SDS011;65977;56.380;44.022;2022-12-24T03:27:51;20.77;;;12.57;;
77046;SDS011;65977;56.380;44.022;2022-12-24T03:30:19;17.95;;;11.20;;
77046;SDS011;65977;56.380;44.022;2022-12-24T03:32:45;16.80;;;9.65;;
77046;SDS011;65977;56.380;44.022;2022-12-24T03:35:11;19.35;;;12.00;;
77046;SDS011;65977;56.380;44.022;2022-12-24T03:37:37;24.60;;;14.75;;
77046;SDS011;65977;56.380;44.022;2022-12-24T03:40:03;25.30;;;13.05;;
77046;SDS011;65977;56.380;44.022;2022-12-24T03:42:30;18.30;;;10.55;;
77046;SDS011;65977;56.380;44.022;2022-12-24T03:44:55;21.27;;;11.50;;
77046;SDS011;65977;56.380;44.022;2022-12-24T03:47:21;18.98;;;11.25;;
77046;SDS011;65977;56.380;44.022;2022-12-24T03:49:46;16.27;;;10.48;;
77046;SDS011;65977;56.380;44.022;2022-12-24T03:52:12;22.50;;;13.48;;
77046;SDS011;65977;56.380;44.022;2022-12-24T03:54:38;14.30;;;9.63;;
77046;SDS011;65977;56.380;44.022;2022-12-24T03:57:03;23.02;;;13.75;;
77046;SDS011;65977;56.380;44.022;2022-12-24T03:59:29;23.92;;;12.82;;
77046;SDS011;65977;56.380;44.022;2022-12-24T04:01:54;21.95;;;13.02;;
77046;SDS011;65977;56.380;44.022;2022-12-24T04:04:20;25.05;;;15.05;;
77046;SDS011;65977;56.380;44.022;2022-12-24T04:06:46;22.35;;;14.20;;
77046;SDS011;65977;56.380;44.022;2022-12-24T04:09:11;22.70;;;12.88;;
77046;SDS011;65977;56.380;44.022;2022-12-24T04:11:37;18.23;;;11.43;;
77046;SDS011;65977;56.380;44.022;2022-12-24T04:14:02;12.90;;;7.22;;
77046;SDS011;65977;56.380;44.022;2022-12-24T04:16:28;26.73;;;14.00;;
77046;SDS011;65977;56.380;44.022;2022-12-24T04:18:54;23.38;;;14.27;;
77046;SDS011;65977;56.380;44.022;2022-12-24T04:21:19;24.13;;;15.02;;
77046;SDS011;65977;56.380;44.022;2022-12-24T04:23:45;23.67;;;15.32;;
77046;SDS011;65977;56.380;44.022;2022-12-24T04:26:12;21.75;;;13.13;;
77046;SDS011;65977;56.380;44.022;2022-12-24T04:28:38;22.40;;;14.75;;
77046;SDS011;65977;56.380;44.022;2022-12-24T04:31:05;20.17;;;12.15;;
77046;SDS011;65977;56.380;44.022;2022-12-24T04:33:32;22.88;;;12.32;;
77046;SDS011;65977;56.380;44.022;2022-12-24T04:35:59;23.50;;;15.15;;
77046;SDS011;65977;56.380;44.022;2022-12-24T04:38:26;18.85;;;11.18;;
77046;SDS011;65977;56.380;44.022;2022-12-24T04:41:03;26.50;;;15.32;;
77046;SDS011;65977;56.380;44.022;2022-12-24T04:43:31;28.95;;;14.02;;
77046;SDS011;65977;56.380;44.022;2022-12-24T04:46:03;25.77;;;13.30;;
77046;SDS011;65977;56.380;44.022;2022-12-24T04:48:40;24.52;;;13.65;;
77046;SDS011;65977;56.380;44.022;2022-12-24T04:51:06;22.02;;;13.50;;
77046;SDS011;65977;56.380;44.022;2022-12-24T04:53:33;23.63;;;13.00;;
77046;SDS011;65977;56.380;44.022;2022-12-24T04:55:59;13.60;;;8.07;;
77046;SDS011;65977;56.380;44.022;2022-12-24T04:58:25;23.25;;;12.10;;
77046;SDS011;65977;56.380;44.022;2022-12-24T05:00:51;24.70;;;14.35;;
77046;SDS011;65977;56.380;44.022;2022-12-24T05:03:18;26.88;;;14.32;;
77046;SDS011;65977;56.380;44.022;2022-12-24T05:05:43;30.35;;;16.80;;
77046;SDS011;65977;56.380;44.022;2022-12-24T05:08:09;24.67;;;12.95;;
77046;SDS011;65977;56.380;44.022;2022-12-24T05:10:35;22.52;;;13.00;;
77046;SDS011;65977;56.380;44.022;2022-12-24T05:13:01;26.27;;;14.75;;
77046;SDS011;65977;56.380;44.022;2022-12-24T05:15:26;23.17;;;13.35;;
77046;SDS011;65977;56.380;44.022;2022-12-24T05:17:52;24.33;;;11.27;;
77046;SDS011;65977;56.380;44.022;2022-12-24T05:20:17;26.00;;;14.15;;
77046;SDS011;65977;56.380;44.022;2022-12-24T05:22:43;29.25;;;14.25;;
77046;SDS011;65977;56.380;44.022;2022-12-24T05:25:30;20.65;;;12.05;;
77046;SDS011;65977;56.380;44.022;2022-12-24T05:28:17;27.85;;;12.10;;
77046;SDS011;65977;56.380;44.022;2022-12-24T05:30:42;21.38;;;11.65;;
77046;SDS011;65977;56.380;44.022;2022-12-24T05:33:08;24.17;;;13.93;;
77046;SDS011;65977;56.380;44.022;2022-12-24T05:35:34;21.88;;;12.52;;
77046;SDS011;65977;56.380;44.022;2022-12-24T05:37:59;23.60;;;13.52;;
77046;SDS011;65977;56.380;44.022;2022-12-24T05:40:25;29.10;;;15.20;;
77046;SDS011;65977;56.380;44.022;2022-12-24T05:42:51;22.98;;;12.60;;
77046;SDS011;65977;56.380;44.022;2022-12-24T05:45:16;34.60;;;16.67;;
77046;SDS011;65977;56.380;44.022;2022-12-24T05:47:42;28.42;;;15.63;;
77046;SDS011;65977;56.380;44.022;2022-12-24T05:50:08;26.20;;;13.98;;
77046;SDS011;65977;56.380;44.022;2022-12-24T05:52:34;30.17;;;13.27;;
77046;SDS011;65977;56.380;44.022;2022-12-24T05:54:59;30.10;;;15.20;;
77046;SDS011;65977;56.380;44.022;2022-12-24T05:57:25;22.25;;;9.38;;
77046;SDS011;65977;56.380;44.022;2022-12-24T05:59:51;27.63;;;14.43;;
77046;SDS011;65977;56.380;44.022;2022-12-24T06:02:17;26.98;;;14.45;;
77046;SDS011;65977;56.380;44.022;2022-12-24T06:04:42;28.15;;;14.85;;
77046;SDS011;65977;56.380;44.022;2022-12-24T06:07:08;29.30;;;15.55;;
77046;SDS011;65977;56.380;44.022;2022-12-24T06:09:33;27.95;;;14.52;;
77046;SDS011;65977;56.380;44.022;2022-12-24T06:11:59;26.50;;;14.43;;
77046;SDS011;65977;56.380;44.022;2022-12-24T06:14:25;32.10;;;14.35;;
77046;SDS011;65977;56.380;44.022;2022-12-24T06:16:50;26.70;;;13.63;;
77046;SDS011;65977;56.380;44.022;2022-12-24T06:19:16;26.98;;;13.82;;
77046;SDS011;65977;56.380;44.022;2022-12-24T06:21:42;24.05;;;13.85;;
77046;SDS011;65977;56.380;44.022;2022-12-24T06:24:07;23.08;;;13.80;;
77046;SDS011;65977;56.380;44.022;2022-12-24T06:26:33;30.40;;;16.52;;
77046;SDS011;65977;56.380;44.022;2022-12-24T06:28:59;19.67;;;10.68;;
77046;SDS011;65977;56.380;44.022;2022-12-24T06:31:24;24.48;;;12.27;;
77046;SDS011;65977;56.380;44.022;2022-12-24T06:33:51;21.73;;;12.07;;
77046;SDS011;65977;56.380;44.022;2022-12-24T06:36:22;20.27;;;10.40;;
77046;SDS011;65977;56.380;44.022;2022-12-24T06:38:49;22.33;;;13.02;;
77046;SDS011;65977;56.380;44.022;2022-12-24T06:41:16;23.13;;;11.05;;
77046;SDS011;65977;56.380;44.022;2022-12-24T06:43:43;24.67;;;11.63;;
77046;SDS011;65977;56.380;44.022;2022-12-24T06:46:10;20.77;;;12.73;;
77046;SDS011;65977;56.380;44.022;2022-12-24T06:48:35;25.65;;;14.27;;
77046;SDS011;65977;56.380;44.022;2022-12-24T06:51:01;21.20;;;12.15;;
77046;SDS011;65977;56.380;44.022;2022-12-24T06:53:27;25.63;;;13.68;;
77046;SDS011;65977;56.380;44.022;2022-12-24T06:56:00;24.75;;;12.63;;
77046;SDS011;65977;56.380;44.022;2022-12-24T06:58:26;30.65;;;16.33;;
77046;SDS011;65977;56.380;44.022;2022-12-24T07:00:52;29.42;;;17.45;;
77046;SDS011;65977;56.380;44.022;2022-12-24T07:03:17;33.25;;;15.68;;
77046;SDS011;65977;56.380;44.022;2022-12-24T07:05:43;20.73;;;11.40;;
77046;SDS011;65977;56.380;44.022;2022-12-24T07:08:09;31.85;;;15.65;;
77046;SDS011;65977;56.380;44.022;2022-12-24T07:10:34;37.42;;;18.25;;
77046;SDS011;65977;56.380;44.022;2022-12-24T07:13:00;34.45;;;17.75;;
77046;SDS011;65977;56.380;44.022;2022-12-24T07:15:25;31.52;;;17.10;;
77046;SDS011;65977;56.380;44.022;2022-12-24T07:17:51;33.25;;;16.20;;
77046;SDS011;65977;56.380;44.022;2022-12-24T07:20:17;32.25;;;15.85;;
77046;SDS011;65977;56.380;44.022;2022-12-24T07:22:42;29.45;;;14.95;;
77046;SDS011;65977;56.380;44.022;2022-12-24T07:25:09;32.88;;;17.05;;
77046;SDS011;65977;56.380;44.022;2022-12-24T07:27:35;35.92;;;17.50;;
77046;SDS011;65977;56.380;44.022;2022-12-24T07:30:01;21.50;;;13.02;;
77046;SDS011;65977;56.380;44.022;2022-12-24T07:32:27;30.33;;;16.25;;
77046;SDS011;65977;56.380;44.022;2022-12-24T07:34:52;23.38;;;11.77;;
77046;SDS011;65977;56.380;44.022;2022-12-24T07:37:18;37.47;;;19.70;;
77046;SDS011;65977;56.380;44.022;2022-12-24T07:39:44;42.92;;;21.95;;
77046;SDS011;65977;56.380;44.022;2022-12-24T07:42:09;44.13;;;21.63;;
77046;SDS011;65977;56.380;44.022;2022-12-24T07:44:35;40.58;;;19.77;;
77046;SDS011;65977;56.380;44.022;2022-12-24T07:47:01;35.55;;;18.30;;
77046;SDS011;65977;56.380;44.022;2022-12-24T07:49:26;28.75;;;13.88;;
77046;SDS011;65977;56.380;44.022;2022-12-24T07:51:52;31.63;;;15.75;;
77046;SDS011;65977;56.380;44.022;2022-12-24T07:54:18;30.77;;;15.30;;
77046;SDS011;65977;56.380;44.022;2022-12-24T07:56:44;31.92;;;15.88;;
77046;SDS011;65977;56.380;44.022;2022-12-24T07:59:12;32.63;;;17.13;;
77046;SDS011;65977;56.380;44.022;2022-12-24T08:01:38;35.55;;;17.75;;
77046;SDS011;65977;56.380;44.022;2022-12-24T08:04:05;31.48;;;15.82;;
77046;SDS011;65977;56.380;44.022;2022-12-24T08:06:30;28.80;;;13.90;;
77046;SDS011;65977;56.380;44.022;2022-12-24T08:08:56;31.30;;;15.18;;
77046;SDS011;65977;56.380;44.022;2022-12-24T08:11:22;27.38;;;13.02;;
77046;SDS011;65977;56.380;44.022;2022-12-24T08:13:47;33.90;;;16.02;;
77046;SDS011;65977;56.380;44.022;2022-12-24T08:16:13;28.23;;;13.63;;
77046;SDS011;65977;56.380;44.022;2022-12-24T08:18:39;32.67;;;17.40;;
77046;SDS011;65977;56.380;44.022;2022-12-24T08:21:05;14.75;;;9.07;;
77046;SDS011;65977;56.380;44.022;2022-12-24T08:23:33;33.30;;;17.25;;
77046;SDS011;65977;56.380;44.022;2022-12-24T08:25:58;30.80;;;16.02;;
77046;SDS011;65977;56.380;44.022;2022-12-24T08:28:24;27.42;;;13.32;;
77046;SDS011;65977;56.380;44.022;2022-12-24T08:30:50;28.70;;;14.57;;
77046;SDS011;65977;56.380;44.022;2022-12-24T08:33:17;30.85;;;16.92;;
77046;SDS011;65977;56.380;44.022;2022-12-24T08:35:46;21.90;;;11.27;;
77046;SDS011;65977;56.380;44.022;2022-12-24T08:38:16;24.92;;;12.00;;
77046;SDS011;65977;56.380;44.022;2022-12-24T08:40:42;22.63;;;11.65;;
77046;SDS011;65977;56.380;44.022;2022-12-24T08:43:09;28.30;;;11.57;;
77046;SDS011;65977;56.380;44.022;2022-12-24T08:45:35;20.55;;;10.63;;
77046;SDS011;65977;56.380;44.022;2022-12-24T08:48:03;33.33;;;16.27;;
77046;SDS011;65977;56.380;44.022;2022-12-24T08:50:29;18.98;;;10.13;;
77046;SDS011;65977;56.380;44.022;2022-12-24T08:52:54;26.80;;;13.77;;
77046;SDS011;65977;56.380;44.022;2022-12-24T08:55:20;25.80;;;15.35;;
77046;SDS011;65977;56.380;44.022;2022-12-24T08:57:45;25.98;;;12.23;;
77046;SDS011;65977;56.380;44.022;2022-12-24T09:00:12;24.35;;;13.23;;
77046;SDS011;65977;56.380;44.022;2022-12-24T09:02:38;26.05;;;14.48;;
77046;SDS011;65977;56.380;44.022;2022-12-24T09:05:04;20.50;;;11.20;;
77046;SDS011;65977;56.380;44.022;2022-12-24T09:07:30;28.90;;;14.27;;
77046;SDS011;65977;56.380;44.022;2022-12-24T09:09:55;25.58;;;12.60;;
77046;SDS011;65977;56.380;44.022;2022-12-24T09:12:21;28.65;;;13.68;;
77046;SDS011;65977;56.380;44.022;2022-12-24T09:14:49;25.88;;;13.57;;
77046;SDS011;65977;56.380;44.022;2022-12-24T09:17:15;20.52;;;11.38;;
77046;SDS011;65977;56.380;44.022;2022-12-24T09:19:40;25.40;;;13.35;;
77046;SDS011;65977;56.380;44.022;2022-12-24T09:22:06;22.60;;;10.63;;
77046;SDS011;65977;56.380;44.022;2022-12-24T09:24:32;27.13;;;13.30;;
77046;SDS011;65977;56.380;44.022;2022-12-24T09:27:00;27.33;;;13.35;;
77046;SDS011;65977;56.380;44.022;2022-12-24T09:29:29;25.08;;;12.48;;
77046;SDS011;65977;56.380;44.022;2022-12-24T09:31:55;24.58;;;12.93;;
77046;SDS011;65977;56.380;44.022;2022-12-24T09:34:22;16.98;;;8.65;;
77046;SDS011;65977;56.380;44.022;2022-12-24T09:36:48;26.70;;;13.20;;
77046;SDS011;65977;56.380;44.022;2022-12-24T09:39:16;25.65;;;14.40;;
77046;SDS011;65977;56.380;44.022;2022-12-24T09:44:42;26.63;;;13.10;;
77046;SDS011;65977;56.380;44.022;2022-12-24T09:47:26;26.13;;;13.30;;
77046;SDS011;65977;56.380;44.022;2022-12-24T09:50:35;18.60;;;9.18;;
77046;SDS011;65977;56.380;44.022;2022-12-24T09:53:19;21.20;;;10.70;;
77046;SDS011;65977;56.380;44.022;2022-12-24T09:55:57;28.25;;;14.20;;
77046;SDS011;65977;56.380;44.022;2022-12-24T09:58:29;15.40;;;7.55;;
77046;SDS011;65977;56.380;44.022;2022-12-24T10:00:59;22.77;;;9.38;;
77046;SDS011;65977;56.380;44.022;2022-12-24T10:03:25;21.38;;;9.65;;
77046;SDS011;65977;56.380;44.022;2022-12-24T10:11:23;19.83;;;8.55;;
77046;SDS011;65977;56.380;44.022;2022-12-24T10:19:40;27.05;;;13.05;;
77046;SDS011;65977;56.380;44.022;2022-12-24T10:27:40;26.40;;;13.82;;
77046;SDS011;65977;56.380;44.022;2022-12-24T10:30:13;17.48;;;8.68;;
77046;SDS011;65977;56.380;44.022;2022-12-24T10:32:43;30.67;;;14.32;;
77046;SDS011;65977;56.380;44.022;2022-12-24T10:37:41;30.88;;;15.68;;
77046;SDS011;65977;56.380;44.022;2022-12-24T10:42:53;33.63;;;15.93;;
77046;SDS011;65977;56.380;44.022;2022-12-24T10:45:21;25.90;;;13.90;;
77046;SDS011;65977;56.380;44.022;2022-12-24T10:47:51;32.88;;;17.60;;
77046;SDS011;65977;56.380;44.022;2022-12-24T10:52:46;31.23;;;16.75;;
77046;SDS011;65977;56.380;44.022;2022-12-24T10:57:44;27.80;;;16.02;;
77046;SDS011;65977;56.380;44.022;2022-12-24T11:00:17;24.88;;;13.15;;
77046;SDS011;65977;56.380;44.022;2022-12-24T11:02:45;24.48;;;11.82;;
77046;SDS011;65977;56.380;44.022;2022-12-24T11:05:29;18.08;;;9.75;;
77046;SDS011;65977;56.380;44.022;2022-12-24T11:08:03;28.25;;;14.07;;
77046;SDS011;65977;56.380;44.022;2022-12-24T11:10:53;28.40;;;14.82;;
77046;SDS011;65977;56.380;44.022;2022-12-24T11:13:29;25.85;;;13.25;;
77046;SDS011;65977;56.380;44.022;2022-12-24T11:15:58;15.88;;;8.98;;
77046;SDS011;65977;56.380;44.022;2022-12-24T11:18:55;23.55;;;11.82;;
77046;SDS011;65977;56.380;44.022;2022-12-24T11:24:16;23.55;;;12.20;;
77046;SDS011;65977;56.380;44.022;2022-12-24T11:29:49;19.00;;;10.52;;
77046;SDS011;65977;56.380;44.022;2022-12-24T11:32:17;23.25;;;12.57;;
77046;SDS011;65977;56.380;44.022;2022-12-24T11:34:44;24.25;;;10.63;;
77046;SDS011;65977;56.380;44.022;2022-12-24T11:37:15;21.40;;;11.38;;
77046;SDS011;65977;56.380;44.022;2022-12-24T11:39:54;23.92;;;13.60;;
77046;SDS011;65977;56.380;44.022;2022-12-24T11:42:29;24.90;;;12.20;;
77046;SDS011;65977;56.380;44.022;2022-12-24T11:44:58;29.50;;;15.82;;
77046;SDS011;65977;56.380;44.022;2022-12-24T11:47:38;23.77;;;11.30;;
77046;SDS011;65977;56.380;44.022;2022-12-24T11:55:27;21.77;;;12.15;;
77046;SDS011;65977;56.380;44.022;2022-12-24T12:03:47;16.63;;;7.90;;
77046;SDS011;65977;56.380;44.022;2022-12-24T12:06:26;23.45;;;12.10;;
77046;SDS011;65977;56.380;44.022;2022-12-24T12:09:00;20.02;;;9.73;;
77046;SDS011;65977;56.380;44.022;2022-12-24T12:11:31;19.20;;;9.93;;
77046;SDS011;65977;56.380;44.022;2022-12-24T12:13:59;23.90;;;12.50;;
77046;SDS011;65977;56.380;44.022;2022-12-24T12:16:52;21.65;;;11.35;;
77046;SDS011;65977;56.380;44.022;2022-12-24T12:19:37;22.73;;;10.60;;
77046;SDS011;65977;56.380;44.022;2022-12-24T12:22:13;22.83;;;11.20;;
77046;SDS011;65977;56.380;44.022;2022-12-24T12:25:01;23.65;;;11.70;;
77046;SDS011;65977;56.380;44.022;2022-12-24T12:30:02;21.20;;;10.88;;
77046;SDS011;65977;56.380;44.022;2022-12-24T12:32:44;20.42;;;11.00;;
77046;SDS011;65977;56.380;44.022;2022-12-24T12:35:37;23.08;;;13.07;;
77046;SDS011;65977;56.380;44.022;2022-12-24T12:38:24;26.25;;;14.93;;
77046;SDS011;65977;56.380;44.022;2022-12-24T12:43:32;20.98;;;12.68;;
77046;SDS011;65977;56.380;44.022;2022-12-24T12:46:17;19.52;;;9.82;;
77046;SDS011;65977;56.380;44.022;2022-12-24T12:56:46;19.02;;;11.02;;
77046;SDS011;65977;56.380;44.022;2022-12-24T12:59:20;24.30;;;12.48;;
77046;SDS011;65977;56.380;44.022;2022-12-24T13:05:17;19.50;;;10.77;;
77046;SDS011;65977;56.380;44.022;2022-12-24T13:18:53;19.67;;;11.65;;
77046;SDS011;65977;56.380;44.022;2022-12-24T13:21:29;24.85;;;13.25;;
77046;SDS011;65977;56.380;44.022;2022-12-24T13:24:14;21.92;;;12.65;;
77046;SDS011;65977;56.380;44.022;2022-12-24T13:26:40;23.83;;;12.65;;
77046;SDS011;65977;56.380;44.022;2022-12-24T13:34:56;25.60;;;13.68;;
77046;SDS011;65977;56.380;44.022;2022-12-24T13:40:01;20.75;;;12.38;;
77046;SDS011;65977;56.380;44.022;2022-12-24T13:48:00;26.73;;;15.63;;
77046;SDS011;65977;56.380;44.022;2022-12-24T13:50:50;19.65;;;9.65;;
77046;SDS011;65977;56.380;44.022;2022-12-24T13:53:21;19.90;;;12.10;;
77046;SDS011;65977;56.380;44.022;2022-12-24T13:58:46;28.90;;;17.17;;
77046;SDS011;65977;56.380;44.022;2022-12-24T14:01:20;15.90;;;8.45;;
77046;SDS011;65977;56.380;44.022;2022-12-24T14:03:57;27.45;;;14.05;;
77046;SDS011;65977;56.380;44.022;2022-12-24T14:06:26;26.65;;;13.77;;
77046;SDS011;65977;56.380;44.022;2022-12-24T14:08:53;14.35;;;7.65;;
77046;SDS011;65977;56.380;44.022;2022-12-24T14:13:51;21.73;;;12.30;;
77046;SDS011;65977;56.380;44.022;2022-12-24T14:16:27;18.48;;;11.43;;
77046;SDS011;65977;56.380;44.022;2022-12-24T14:22:23;20.38;;;10.45;;
77046;SDS011;65977;56.380;44.022;2022-12-24T14:24:53;15.23;;;8.95;;
77046;SDS011;65977;56.380;44.022;2022-12-24T14:30:16;13.30;;;8.10;;
77046;SDS011;65977;56.380;44.022;2022-12-24T14:32:45;19.35;;;11.27;;
77046;SDS011;65977;56.380;44.022;2022-12-24T14:37:41;13.10;;;9.02;;
77046;SDS011;65977;56.380;44.022;2022-12-24T14:40:21;18.58;;;10.35;;
77046;SDS011;65977;56.380;44.022;2022-12-24T14:43:06;14.10;;;8.18;;
77046;SDS011;65977;56.380;44.022;2022-12-24T14:45:50;14.10;;;9.40;;
77046;SDS011;65977;56.380;44.022;2022-12-24T14:56:41;12.82;;;7.82;;
77046;SDS011;65977;56.380;44.022;2022-12-24T14:59:14;12.60;;;8.00;;
77046;SDS011;65977;56.380;44.022;2022-12-24T15:01:43;13.90;;;8.93;;
77046;SDS011;65977;56.380;44.022;2022-12-24T15:06:39;12.88;;;7.70;;
77046;SDS011;65977;56.380;44.022;2022-12-24T15:11:43;9.13;;;6.28;;
77046;SDS011;65977;56.380;44.022;2022-12-24T15:14:10;12.13;;;6.13;;
77046;SDS011;65977;56.380;44.022;2022-12-24T15:16:37;9.90;;;6.13;;
77046;SDS011;65977;56.380;44.022;2022-12-24T15:19:06;10.13;;;6.18;;
77046;SDS011;65977;56.380;44.022;2022-12-24T15:21:44;8.77;;;5.65;;
77046;SDS011;65977;56.380;44.022;2022-12-24T15:24:29;9.25;;;5.63;;
77046;SDS011;65977;56.380;44.022;2022-12-24T15:26:57;7.53;;;5.57;;
77046;SDS011;65977;56.380;44.022;2022-12-24T15:29:28;8.00;;;5.57;;
77046;SDS011;65977;56.380;44.022;2022-12-24T15:31:57;7.53;;;4.47;;
77046;SDS011;65977;56.380;44.022;2022-12-24T15:34:26;8.65;;;5.85;;
77046;SDS011;65977;56.380;44.022;2022-12-24T15:36:59;7.68;;;4.88;;
77046;SDS011;65977;56.380;44.022;2022-12-24T15:39:27;7.10;;;4.53;;
77046;SDS011;65977;56.380;44.022;2022-12-24T15:41:53;6.30;;;4.55;;
77046;SDS011;65977;56.380;44.022;2022-12-24T15:44:37;5.00;;;3.53;;
77046;SDS011;65977;56.380;44.022;2022-12-24T15:47:07;5.45;;;3.97;;
77046;SDS011;65977;56.380;44.022;2022-12-24T15:49:38;7.25;;;4.93;;
77046;SDS011;65977;56.380;44.022;2022-12-24T15:52:08;6.30;;;4.55;;
77046;SDS011;65977;56.380;44.022;2022-12-24T15:54:48;6.65;;;3.85;;
77046;SDS011;65977;56.380;44.022;2022-12-24T15:59:57;8.68;;;4.43;;
77046;SDS011;65977;56.380;44.022;2022-12-24T16:04:49;6.68;;;4.20;;
77046;SDS011;65977;56.380;44.022;2022-12-24T16:07:25;6.60;;;4.18;;
77046;SDS011;65977;56.380;44.022;2022-12-24T16:10:23;5.57;;;3.33;;
77046;SDS011;65977;56.380;44.022;2022-12-24T16:12:50;10.18;;;5.05;;
77046;SDS011;65977;56.380;44.022;2022-12-24T16:15:16;5.68;;;2.70;;
77046;SDS011;65977;56.380;44.022;2022-12-24T16:17:43;8.30;;;4.85;;
77046;SDS011;65977;56.380;44.022;2022-12-24T16:20:20;11.52;;;4.47;;
77046;SDS011;65977;56.380;44.022;2022-12-24T16:22:46;6.90;;;4.93;;
77046;SDS011;65977;56.380;44.022;2022-12-24T16:27:42;7.00;;;5.15;;
77046;SDS011;65977;56.380;44.022;2022-12-24T16:30:10;10.27;;;4.00;;
77046;SDS011;65977;56.380;44.022;2022-12-24T16:32:36;4.70;;;3.17;;
77046;SDS011;65977;56.380;44.022;2022-12-24T16:35:05;7.05;;;5.05;;
77046;SDS011;65977;56.380;44.022;2022-12-24T16:37:41;5.97;;;2.92;;
77046;SDS011;65977;56.380;44.022;2022-12-24T16:40:12;6.68;;;4.75;;
77046;SDS011;65977;56.380;44.022;2022-12-24T16:42:39;5.78;;;4.07;;
77046;SDS011;65977;56.380;44.022;2022-12-24T16:45:23;3.78;;;2.72;;
77046;SDS011;65977;56.380;44.022;2022-12-24T16:47:49;6.45;;;4.15;;
77046;SDS011;65977;56.380;44.022;2022-12-24T16:50:15;7.38;;;4.78;;
77046;SDS011;65977;56.380;44.022;2022-12-24T16:52:42;8.85;;;5.22;;
77046;SDS011;65977;56.380;44.022;2022-12-24T16:55:11;7.75;;;5.25;;
77046;SDS011;65977;56.380;44.022;2022-12-24T16:57:38;6.45;;;4.18;;
77046;SDS011;65977;56.380;44.022;2022-12-24T17:00:18;6.78;;;4.43;;
77046;SDS011;65977;56.380;44.022;2022-12-24T17:02:46;5.25;;;3.70;;
77046;SDS011;65977;56.380;44.022;2022-12-24T17:05:12;6.75;;;4.47;;
77046;SDS011;65977;56.380;44.022;2022-12-24T17:07:38;9.23;;;5.28;;